createdAt,value
2017-11-06T00:00:37.101Z,95.15
2017-11-06T00:03:04.655Z,95.06
2017-11-06T00:05:32.232Z,95.40
2017-11-06T00:07:59.803Z,95.66
2017-11-06T00:10:27.347Z,95.71
2017-11-06T00:12:54.948Z,95.99
2017-11-06T00:15:22.534Z,95.80
2017-11-06T00:17:50.080Z,95.68
2017-11-06T00:20:17.644Z,95.92
2017-11-06T00:22:45.197Z,95.91
2017-11-06T00:25:13.152Z,96.05
2017-11-06T00:27:40.695Z,95.96
2017-11-06T00:30:08.249Z,95.99
2017-11-06T00:32:35.905Z,96.00
2017-11-06T00:35:03.520Z,96.02
2017-11-06T00:37:31.097Z,96.01
2017-11-06T00:39:58.649Z,96.15
2017-11-06T00:42:26.303Z,96.19
2017-11-06T00:44:53.867Z,96.16
2017-11-06T00:47:21.446Z,96.33
2017-11-06T00:49:49.035Z,96.36
2017-11-06T00:52:16.593Z,96.38
2017-11-06T00:54:44.169Z,96.55
2017-11-06T00:57:11.965Z,96.53
2017-11-06T00:59:39.909Z,95.98
2017-11-06T01:02:07.450Z,96.05
2017-11-06T01:04:35.001Z,96.07
2017-11-06T01:07:02.581Z,96.17
2017-11-06T01:09:30.179Z,96.14
2017-11-06T01:11:57.755Z,96.16
2017-11-06T01:14:25.304Z,96.32
2017-11-06T01:16:52.893Z,96.25
2017-11-06T01:19:20.467Z,96.29
2017-11-06T01:21:48.101Z,96.34
2017-11-06T01:24:15.713Z,96.39
2017-11-06T01:26:43.275Z,96.09
2017-11-06T01:29:10.849Z,96.23
2017-11-06T01:31:38.969Z,95.67
2017-11-06T01:34:06.513Z,95.35
2017-11-06T01:36:34.258Z,94.79
2017-11-06T01:39:01.816Z,94.29
2017-11-06T01:41:29.367Z,94.58
2017-11-06T01:43:56.908Z,94.36
2017-11-06T01:46:24.759Z,94.41
2017-11-06T01:48:52.292Z,94.62
2017-11-06T01:51:19.845Z,94.22
2017-11-06T01:53:47.411Z,92.88
2017-11-06T01:56:14.953Z,92.96
2017-11-06T01:58:42.863Z,92.54
2017-11-06T02:01:10.395Z,92.56
2017-11-06T02:03:37.935Z,92.78
2017-11-06T02:06:05.492Z,92.37
2017-11-06T02:08:33.055Z,92.99
2017-11-06T02:11:00.887Z,92.84
2017-11-06T02:13:28.429Z,93.34
2017-11-06T02:15:55.969Z,93.78
2017-11-06T02:18:23.552Z,94.08
2017-11-06T02:20:51.092Z,94.36
2017-11-06T02:23:18.976Z,94.47
2017-11-06T02:25:46.514Z,94.54
2017-11-06T02:28:14.050Z,94.83
2017-11-06T02:30:41.626Z,94.69
2017-11-06T02:33:09.218Z,94.76
2017-11-06T02:35:36.790Z,94.97
2017-11-06T02:38:04.354Z,94.99
2017-11-06T02:40:31.912Z,95.01
2017-11-06T02:42:59.447Z,94.94
2017-11-06T02:45:27.029Z,94.88
2017-11-06T02:47:54.572Z,94.75
2017-11-06T02:50:22.114Z,93.92
2017-11-06T02:52:49.679Z,92.48
2017-11-06T02:55:17.236Z,92.52
2017-11-06T02:57:44.783Z,92.36
2017-11-06T03:00:12.368Z,93.01
2017-11-06T03:02:39.931Z,93.72
2017-11-06T03:05:07.466Z,93.20
2017-11-06T03:07:35.370Z,92.79
2017-11-06T03:10:02.902Z,93.23
2017-11-06T03:12:30.484Z,93.20
2017-11-06T03:14:58.057Z,93.12
2017-11-06T03:17:25.580Z,93.12
2017-11-06T03:19:53.151Z,93.04
2017-11-06T03:22:20.679Z,92.09
2017-11-06T03:24:48.593Z,92.79
2017-11-06T03:27:16.126Z,91.89
2017-11-06T03:29:43.649Z,92.11
2017-11-06T03:32:11.347Z,92.72
2017-11-06T03:34:39.016Z,91.90
2017-11-06T03:37:06.571Z,92.24
2017-11-06T03:39:34.243Z,92.20
2017-11-06T03:42:01.847Z,92.46
2017-11-06T03:44:29.380Z,92.25
2017-11-06T03:46:56.904Z,92.30
2017-11-06T03:49:24.456Z,92.29
2017-11-06T03:51:52.563Z,91.87
2017-11-06T03:54:20.105Z,92.42
2017-11-06T03:56:47.641Z,92.87
2017-11-06T03:59:15.477Z,92.67
2017-11-06T04:01:43.026Z,91.86
2017-11-06T04:04:10.573Z,92.15
2017-11-06T04:06:38.115Z,92.81
2017-11-06T04:09:05.644Z,92.44
2017-11-06T04:11:33.196Z,92.43
2017-11-06T04:14:00.734Z,92.45
2017-11-06T04:16:28.807Z,93.20
2017-11-06T04:18:57.034Z,93.34
2017-11-06T04:21:24.588Z,93.52
2017-11-06T04:23:52.157Z,93.47
2017-11-06T04:26:19.683Z,94.02
2017-11-06T04:28:47.626Z,93.51
2017-11-06T04:31:15.227Z,93.97
2017-11-06T04:33:44.698Z,92.97
2017-11-06T04:36:12.248Z,93.47
2017-11-06T04:38:39.798Z,92.68
2017-11-06T04:41:07.344Z,93.31
2017-11-06T04:43:34.968Z,93.90
2017-11-06T04:46:02.558Z,94.05
2017-11-06T04:48:30.104Z,93.89
2017-11-06T04:50:57.937Z,94.16
2017-11-06T04:53:25.470Z,94.09
2017-11-06T04:55:53.013Z,94.12
2017-11-06T04:58:20.555Z,94.20
2017-11-06T05:00:48.100Z,93.89
2017-11-06T05:03:16.009Z,94.17
2017-11-06T05:05:43.968Z,94.21
2017-11-06T05:08:11.543Z,93.41
2017-11-06T05:10:39.103Z,93.40
2017-11-06T05:13:06.638Z,93.25
2017-11-06T05:15:34.301Z,93.25
2017-11-06T05:18:01.852Z,93.66
2017-11-06T05:20:29.376Z,93.75
2017-11-06T05:22:57.084Z,94.16
2017-11-06T05:25:24.628Z,94.49
2017-11-06T05:27:52.168Z,94.56
2017-11-06T05:30:20.082Z,94.19
2017-11-06T05:32:47.632Z,94.43
2017-11-06T05:35:15.278Z,94.55
2017-11-06T05:37:42.860Z,94.82
2017-11-06T05:40:10.410Z,94.99
2017-11-06T05:42:37.967Z,93.97
2017-11-06T05:45:05.540Z,94.31
2017-11-06T05:47:33.082Z,94.49
2017-11-06T05:50:00.644Z,94.33
2017-11-06T05:52:28.192Z,94.05
2017-11-06T05:54:55.762Z,94.49
2017-11-06T05:57:23.302Z,94.72
2017-11-06T05:59:50.856Z,94.78
2017-11-06T06:02:18.513Z,94.91
2017-11-06T06:04:46.052Z,95.13
2017-11-06T06:07:13.782Z,95.25
2017-11-06T06:09:41.336Z,95.27
2017-11-06T06:12:09.455Z,95.32
2017-11-06T06:14:37.007Z,95.09
2017-11-06T06:17:04.554Z,95.16
2017-11-06T06:19:32.118Z,95.15
2017-11-06T06:21:59.677Z,94.61
2017-11-06T06:24:27.603Z,94.87
2017-11-06T06:26:55.147Z,95.07
2017-11-06T06:29:22.788Z,95.34
2017-11-06T06:31:50.346Z,95.46
2017-11-06T06:34:17.889Z,95.49
2017-11-06T06:36:45.445Z,95.43
2017-11-06T06:39:12.994Z,95.43
2017-11-06T06:41:40.826Z,95.44
2017-11-06T06:44:08.373Z,95.49
2017-11-06T06:46:35.909Z,95.71
2017-11-06T06:49:03.471Z,95.77
2017-11-06T06:51:31.007Z,96.02
2017-11-06T06:53:58.566Z,96.08
2017-11-06T06:56:26.107Z,96.04
2017-11-06T06:58:53.642Z,95.93
2017-11-06T07:01:21.195Z,95.92
2017-11-06T07:03:48.747Z,95.91
2017-11-06T07:06:16.317Z,95.89
2017-11-06T07:08:43.851Z,95.96
2017-11-06T07:11:11.533Z,96.16
2017-11-06T07:13:39.080Z,96.19
2017-11-06T07:16:06.972Z,96.22
2017-11-06T07:18:34.502Z,96.24
2017-11-06T07:21:02.043Z,96.24
2017-11-06T07:23:29.607Z,96.23
2017-11-06T07:25:57.149Z,96.43
2017-11-06T07:28:25.095Z,96.38
2017-11-06T07:30:52.654Z,96.35
2017-11-06T07:33:20.225Z,96.26
2017-11-06T07:35:47.834Z,96.17
2017-11-06T07:38:15.386Z,96.09
2017-11-06T07:40:43.012Z,96.04
2017-11-06T07:43:10.680Z,96.23
2017-11-06T07:45:38.342Z,96.22
2017-11-06T07:48:05.901Z,96.20
2017-11-06T07:50:33.547Z,96.13
2017-11-06T07:53:01.096Z,95.97
2017-11-06T07:55:28.639Z,95.91
2017-11-06T07:57:56.209Z,95.84
2017-11-06T08:00:23.740Z,95.62
2017-11-06T08:02:51.666Z,95.08
2017-11-06T08:05:19.209Z,95.23
2017-11-06T08:07:46.803Z,95.36
2017-11-06T08:10:14.484Z,95.26
2017-11-06T08:12:42.143Z,95.36
2017-11-06T08:15:09.728Z,95.29
2017-11-06T08:17:37.273Z,94.82
2017-11-06T08:20:04.819Z,94.70
2017-11-06T08:22:32.389Z,94.71
2017-11-06T08:25:00.016Z,94.90
2017-11-06T08:27:27.583Z,94.33
2017-11-06T08:29:55.129Z,94.66
2017-11-06T08:32:22.676Z,94.65
2017-11-06T08:34:50.244Z,94.36
2017-11-06T08:37:17.795Z,94.30
2017-11-06T08:39:45.354Z,93.28
2017-11-06T08:42:13.005Z,93.41
2017-11-06T08:44:40.583Z,92.57
2017-11-06T08:47:08.140Z,93.16
2017-11-06T08:49:35.693Z,93.46
2017-11-06T08:52:03.305Z,92.44
2017-11-06T08:54:30.864Z,92.17
2017-11-06T08:56:58.454Z,91.36
2017-11-06T08:59:26.004Z,91.36
2017-11-06T09:01:53.572Z,92.17
2017-11-06T09:04:21.208Z,92.57
2017-11-06T09:06:48.992Z,92.61
2017-11-06T09:09:16.542Z,92.49
2017-11-06T09:11:44.088Z,92.53
2017-11-06T09:14:11.651Z,91.41
2017-11-06T09:16:39.203Z,91.91
2017-11-06T09:19:06.765Z,92.16
2017-11-06T09:21:34.329Z,92.07
2017-11-06T09:24:01.895Z,91.83
2017-11-06T09:26:29.456Z,91.00
2017-11-06T09:28:57.384Z,90.69
2017-11-06T09:31:24.929Z,90.72
2017-11-06T09:33:52.474Z,90.37
2017-11-06T09:36:20.051Z,90.07
2017-11-06T09:38:47.605Z,90.15
2017-11-06T09:41:15.189Z,88.90
2017-11-06T09:43:42.739Z,89.78
2017-11-06T09:46:10.282Z,88.49
2017-11-06T09:48:37.848Z,88.92
2017-11-06T09:51:05.401Z,89.50
2017-11-06T09:53:33.279Z,88.71
2017-11-06T09:56:00.830Z,89.45
2017-11-06T09:58:28.377Z,88.94
2017-11-06T10:00:55.936Z,89.15
2017-11-06T10:03:23.492Z,89.50
2017-11-06T10:05:51.053Z,88.18
2017-11-06T10:08:18.580Z,88.98
2017-11-06T10:10:46.160Z,88.97
2017-11-06T10:13:13.712Z,89.41
2017-11-06T10:15:41.273Z,87.61
2017-11-06T10:18:08.915Z,89.09
2017-11-06T10:20:36.487Z,89.71
2017-11-06T10:23:04.413Z,89.30
2017-11-06T10:25:32.051Z,89.21
2017-11-06T10:27:59.598Z,89.90
2017-11-06T10:30:27.164Z,89.71
2017-11-06T10:32:54.697Z,89.76
2017-11-06T10:35:22.318Z,90.15
2017-11-06T10:37:49.886Z,89.78
2017-11-06T10:40:17.515Z,88.50
2017-11-06T10:42:45.233Z,89.10
2017-11-06T10:45:12.789Z,89.11
2017-11-06T10:47:40.354Z,89.16
2017-11-06T10:50:07.892Z,89.31
2017-11-06T10:52:35.447Z,89.93
2017-11-06T10:55:03.015Z,89.41
2017-11-06T10:57:30.566Z,89.52
2017-11-06T10:59:58.130Z,88.25
2017-11-06T11:02:25.703Z,89.19
2017-11-06T11:04:53.342Z,89.58
2017-11-06T11:07:20.904Z,90.22
2017-11-06T11:09:48.476Z,90.12
2017-11-06T11:12:16.193Z,90.40
2017-11-06T11:14:43.766Z,88.86
2017-11-06T11:17:11.396Z,89.33
2017-11-06T11:19:38.942Z,89.15
2017-11-06T11:22:06.518Z,89.21
2017-11-06T11:24:34.184Z,89.11
2017-11-06T11:27:02.089Z,89.66
2017-11-06T11:29:29.711Z,89.74
2017-11-06T11:31:57.329Z,89.97
2017-11-06T11:34:24.899Z,90.11
2017-11-06T11:36:52.434Z,90.71
2017-11-06T11:39:20.092Z,90.83
2017-11-06T11:41:47.617Z,91.18
2017-11-06T11:44:15.160Z,90.66
2017-11-06T11:46:42.741Z,90.58
2017-11-06T11:49:10.300Z,90.84
2017-11-06T11:51:37.889Z,90.99
2017-11-06T11:54:05.437Z,90.64
2017-11-06T11:56:33.106Z,89.99
2017-11-06T11:59:00.669Z,90.61
2017-11-06T12:01:28.206Z,90.68
2017-11-06T12:03:55.761Z,90.82
2017-11-06T12:06:23.317Z,90.71
2017-11-06T12:08:50.890Z,90.08
2017-11-06T12:11:18.431Z,89.79
2017-11-06T12:13:45.971Z,89.51
2017-11-06T12:16:13.536Z,89.16
2017-11-06T12:18:41.190Z,89.35
2017-11-06T12:21:08.750Z,89.12
2017-11-06T12:23:36.306Z,89.42
2017-11-06T12:26:03.866Z,89.54
2017-11-06T12:28:31.461Z,90.18
2017-11-06T12:30:59.007Z,90.05
2017-11-06T12:33:26.590Z,90.00
2017-11-06T12:35:54.132Z,90.54
2017-11-06T12:38:21.701Z,90.18
2017-11-06T12:40:49.255Z,90.77
2017-11-06T12:43:16.817Z,90.97
2017-11-06T12:45:44.397Z,90.93
2017-11-06T12:48:11.986Z,90.49
2017-11-06T12:50:39.840Z,90.50
2017-11-06T12:53:07.375Z,90.28
2017-11-06T12:55:34.961Z,90.56
2017-11-06T12:58:02.561Z,90.78
2017-11-06T13:00:30.107Z,90.58
2017-11-06T13:02:59.130Z,90.78
2017-11-06T13:05:26.663Z,91.23
2017-11-06T13:07:54.531Z,91.05
2017-11-06T13:10:22.136Z,91.22
2017-11-06T13:12:49.911Z,91.03
2017-11-06T13:15:17.484Z,90.92
2017-11-06T13:17:45.193Z,90.84
2017-11-06T13:20:12.759Z,90.71
2017-11-06T13:22:40.314Z,90.75
2017-11-06T13:25:07.852Z,90.64
2017-11-06T13:27:35.558Z,90.83
2017-11-06T13:30:03.104Z,91.05
2017-11-06T13:32:30.769Z,91.10
2017-11-06T13:34:58.422Z,90.75
2017-11-06T13:37:25.997Z,91.12
2017-11-06T13:39:53.556Z,91.24
2017-11-06T13:42:21.106Z,91.33
2017-11-06T13:44:48.695Z,91.31
2017-11-06T13:47:16.237Z,91.64
2017-11-06T13:49:43.795Z,91.62
2017-11-06T13:52:11.352Z,91.82
2017-11-06T13:54:38.956Z,91.66
2017-11-06T13:57:06.496Z,91.55
2017-11-06T13:59:34.057Z,91.69
2017-11-06T14:02:01.722Z,91.66
2017-11-06T14:04:29.288Z,91.59
2017-11-06T14:06:56.853Z,91.68
2017-11-06T14:09:24.401Z,92.06
2017-11-06T14:11:51.957Z,92.28
2017-11-06T14:14:19.532Z,91.65
2017-11-06T14:16:47.193Z,91.67
2017-11-06T14:19:14.934Z,91.86
2017-11-06T14:21:42.622Z,91.98
2017-11-06T14:24:10.264Z,92.04
2017-11-06T14:26:37.801Z,92.04
2017-11-06T14:29:05.739Z,92.08
2017-11-06T14:31:33.297Z,92.20
2017-11-06T14:34:00.850Z,92.29
2017-11-06T14:36:28.422Z,92.39
2017-11-06T14:38:56.011Z,92.26
2017-11-06T14:41:23.604Z,92.24
2017-11-06T14:43:51.148Z,91.96
2017-11-06T14:46:19.052Z,91.93
2017-11-06T14:48:46.646Z,91.89
2017-11-06T14:51:14.210Z,91.89
2017-11-06T14:53:41.828Z,92.10
2017-11-06T14:56:09.361Z,92.20
2017-11-06T14:58:36.928Z,92.14
2017-11-06T15:01:04.794Z,92.25
2017-11-06T15:03:32.372Z,91.77
2017-11-06T15:05:59.970Z,91.93
2017-11-06T15:08:27.527Z,91.82
2017-11-06T15:10:55.090Z,91.94
2017-11-06T15:13:22.643Z,92.08
2017-11-06T15:15:50.650Z,92.23
2017-11-06T15:18:18.198Z,92.57
2017-11-06T15:20:45.752Z,92.70
2017-11-06T15:23:13.324Z,92.29
2017-11-06T15:25:40.870Z,92.42
2017-11-06T15:28:08.457Z,92.45
2017-11-06T15:30:35.987Z,92.55
2017-11-06T15:33:03.588Z,92.52
2017-11-06T15:35:31.210Z,92.82
2017-11-06T15:37:59.114Z,92.89
2017-11-06T15:40:26.729Z,92.99
2017-11-06T15:42:54.330Z,93.11
2017-11-06T15:45:21.944Z,93.39
2017-11-06T15:47:49.488Z,93.48
2017-11-06T15:50:17.076Z,93.40
2017-11-06T15:52:44.635Z,93.46
2017-11-06T15:55:12.254Z,93.65
2017-11-06T15:57:39.809Z,93.61
2017-11-06T16:00:07.359Z,93.98
2017-11-06T16:02:34.950Z,94.05
2017-11-06T16:05:03.202Z,94.10
2017-11-06T16:07:30.792Z,94.20
2017-11-06T16:09:58.366Z,94.29
2017-11-06T16:12:26.426Z,94.40
2017-11-06T16:14:54.025Z,94.48
2017-11-06T16:17:21.663Z,94.52
2017-11-06T16:19:49.263Z,94.63
2017-11-06T16:22:16.827Z,94.66
2017-11-06T16:24:44.498Z,94.75
2017-11-06T16:27:12.048Z,94.86
2017-11-06T16:29:39.955Z,94.87
2017-11-06T16:32:07.537Z,94.99
2017-11-06T16:34:35.161Z,95.02
2017-11-06T16:37:02.893Z,95.11
2017-11-06T16:39:30.548Z,95.14
2017-11-06T16:41:58.141Z,95.05
2017-11-06T16:44:25.735Z,95.01
2017-11-06T16:46:53.328Z,95.05
2017-11-06T16:49:20.891Z,95.15
2017-11-06T16:51:48.464Z,95.27
2017-11-06T16:54:16.041Z,95.28
2017-11-06T16:56:43.627Z,95.30
2017-11-06T16:59:11.217Z,95.34
2017-11-06T17:01:38.802Z,95.39
2017-11-06T17:04:06.411Z,95.29
2017-11-06T17:06:33.985Z,95.32
2017-11-06T17:09:01.564Z,95.39
2017-11-06T17:11:29.212Z,95.51
2017-11-06T17:13:56.933Z,95.55
2017-11-06T17:16:24.534Z,95.35
2017-11-06T17:18:52.072Z,95.40
2017-11-06T17:21:19.704Z,95.38
2017-11-06T17:23:47.290Z,95.35
2017-11-06T17:26:15.023Z,95.47
2017-11-06T17:28:42.591Z,95.53
2017-11-06T17:31:10.166Z,95.43
2017-11-06T17:33:37.764Z,95.42
2017-11-06T17:36:05.328Z,95.49
2017-11-06T17:38:32.939Z,95.56
2017-11-06T17:41:00.516Z,95.50
2017-11-06T17:43:28.084Z,95.59
2017-11-06T17:45:55.671Z,95.64
2017-11-06T17:48:23.266Z,95.64
2017-11-06T17:50:51.280Z,95.69
2017-11-06T17:53:18.840Z,95.65
2017-11-06T17:55:46.457Z,95.59
2017-11-06T17:58:14.476Z,95.59
2017-11-06T18:00:42.274Z,95.58
2017-11-06T18:03:09.891Z,95.51
2017-11-06T18:05:37.468Z,95.55
2017-11-06T18:08:05.435Z,95.66
2017-11-06T18:10:33.091Z,95.69
2017-11-06T18:13:00.852Z,95.70
2017-11-06T18:15:28.452Z,95.72
2017-11-06T18:17:56.049Z,95.66
2017-11-06T18:20:23.692Z,95.60
2017-11-06T18:22:51.257Z,95.67
2017-11-06T18:25:19.775Z,95.73
2017-11-06T18:27:47.847Z,95.81
2017-11-06T18:30:15.425Z,95.80
2017-11-06T18:32:43.115Z,95.93
2017-11-06T18:35:10.783Z,96.07
2017-11-06T18:37:38.371Z,96.16
2017-11-06T18:40:05.953Z,96.12
2017-11-06T18:42:33.590Z,96.04
2017-11-06T18:45:01.192Z,96.01
2017-11-06T18:47:29.136Z,96.00
2017-11-06T18:49:56.729Z,96.09
2017-11-06T18:52:24.326Z,96.11
2017-11-06T18:54:51.934Z,96.10
2017-11-06T18:57:19.543Z,96.13
2017-11-06T18:59:47.194Z,96.22
2017-11-06T19:02:14.840Z,96.26
2017-11-06T19:04:42.474Z,96.27
2017-11-06T19:07:10.459Z,96.26
2017-11-06T19:09:38.026Z,96.23
2017-11-06T19:12:05.692Z,96.25
2017-11-06T19:14:33.295Z,96.32
2017-11-06T19:17:00.975Z,96.39
2017-11-06T19:19:29.181Z,96.33
2017-11-06T19:21:56.842Z,96.33
2017-11-06T19:24:24.523Z,96.29
2017-11-06T19:26:52.186Z,96.23
2017-11-06T19:29:19.979Z,96.27
2017-11-06T19:31:47.605Z,96.30
2017-11-06T19:34:15.253Z,96.30
2017-11-06T19:36:42.892Z,96.42
2017-11-06T19:39:11.656Z,96.36
2017-11-06T19:41:39.372Z,96.34
2017-11-06T19:44:07.077Z,96.36
2017-11-06T19:46:34.836Z,96.35
2017-11-06T19:49:04.834Z,96.38
2017-11-06T19:51:33.491Z,96.40
2017-11-06T19:54:01.324Z,96.50
2017-11-06T19:56:29.435Z,96.49
2017-11-06T19:58:57.284Z,96.45
2017-11-06T20:01:25.271Z,96.32
2017-11-06T20:03:53.113Z,96.33
2017-11-06T20:06:20.876Z,96.40
2017-11-06T20:08:49.540Z,96.35
2017-11-06T20:11:17.743Z,96.40
2017-11-06T20:13:45.487Z,96.51
2017-11-06T20:16:13.389Z,96.51
2017-11-06T20:18:41.277Z,96.61
2017-11-06T20:21:09.151Z,96.62
2017-11-06T20:23:37.071Z,96.58
2017-11-06T20:26:04.949Z,96.54
2017-11-06T20:28:32.667Z,96.48
2017-11-06T20:31:00.600Z,96.58
2017-11-06T20:33:28.483Z,96.69
2017-11-06T20:35:56.431Z,96.63
2017-11-06T20:38:24.177Z,96.63
2017-11-06T20:40:51.908Z,96.66
2017-11-06T20:43:19.702Z,96.69
2017-11-06T20:45:48.902Z,96.74
2017-11-06T20:48:16.946Z,96.79
2017-11-06T20:50:45.458Z,96.80
2017-11-06T20:53:13.240Z,96.85
2017-11-06T20:55:41.083Z,96.81
2017-11-06T20:58:09.674Z,96.84
2017-11-06T21:00:38.722Z,96.90
2017-11-06T21:03:06.434Z,96.86
2017-11-06T21:05:34.222Z,96.85
2017-11-06T21:08:01.936Z,96.81
2017-11-06T21:10:29.596Z,96.81
2017-11-06T21:12:57.242Z,96.90
2017-11-06T21:15:25.014Z,96.90
2017-11-06T21:17:52.732Z,96.96
2017-11-06T21:20:20.345Z,96.93
2017-11-06T21:22:47.932Z,96.97
2017-11-06T21:25:15.723Z,96.96
2017-11-06T21:27:43.346Z,96.95
2017-11-06T21:30:16.598Z,96.92
2017-11-06T21:32:56.745Z,96.99
2017-11-06T21:35:24.527Z,96.96
2017-11-06T21:37:52.297Z,96.98
2017-11-06T21:40:19.918Z,96.94
2017-11-06T21:42:47.503Z,96.91
2017-11-06T21:45:15.435Z,96.91
2017-11-06T21:47:43.008Z,96.97
2017-11-06T21:50:10.576Z,96.97
2017-11-06T21:52:38.346Z,96.95
2017-11-06T21:55:05.911Z,96.96
2017-11-06T21:57:33.838Z,96.95
2017-11-06T22:00:01.419Z,96.94
2017-11-06T22:02:28.988Z,96.94
2017-11-06T22:04:56.563Z,96.91
2017-11-06T22:07:24.111Z,96.97
2017-11-06T22:09:51.779Z,97.00
2017-11-06T22:12:19.352Z,97.00
2017-11-06T22:14:46.912Z,97.05
2017-11-06T22:17:14.644Z,97.08
2017-11-06T22:19:42.204Z,97.09
2017-11-06T22:22:09.781Z,97.09
2017-11-06T22:24:37.350Z,97.12
2017-11-06T22:27:04.960Z,97.12
2017-11-06T22:29:32.540Z,97.18
2017-11-06T22:32:00.119Z,97.28
2017-11-06T22:34:27.701Z,97.26
2017-11-06T22:36:55.259Z,97.30
2017-11-06T22:39:24.040Z,97.34
2017-11-06T22:41:51.905Z,97.37
2017-11-06T22:44:19.526Z,97.41
2017-11-06T22:46:47.093Z,97.32
2017-11-06T22:49:14.713Z,97.27
2017-11-06T22:51:42.302Z,97.36
2017-11-06T22:54:09.839Z,97.35
2017-11-06T22:56:37.467Z,97.35
2017-11-06T22:59:05.028Z,97.39
2017-11-06T23:01:32.632Z,97.30
2017-11-06T23:04:00.199Z,97.29
2017-11-06T23:06:27.759Z,97.35
2017-11-06T23:08:55.421Z,97.29
2017-11-06T23:11:22.974Z,97.31
2017-11-06T23:13:50.535Z,97.36
2017-11-06T23:16:18.087Z,97.33
2017-11-06T23:18:45.984Z,97.34
2017-11-06T23:21:13.623Z,97.39
2017-11-06T23:23:41.218Z,97.40
2017-11-06T23:26:08.782Z,97.47
2017-11-06T23:28:36.326Z,97.44
2017-11-06T23:31:03.900Z,97.39
2017-11-06T23:33:31.543Z,97.39
2017-11-06T23:35:59.153Z,97.39
2017-11-06T23:38:26.701Z,97.29
2017-11-06T23:40:54.254Z,97.27
2017-11-06T23:43:21.934Z,97.29
2017-11-06T23:45:49.465Z,97.25
2017-11-06T23:48:17.033Z,97.29
2017-11-06T23:50:44.586Z,97.32
2017-11-06T23:53:12.525Z,97.33
2017-11-06T23:55:40.070Z,97.33
2017-11-06T23:58:07.625Z,97.32
